Time;durP1;ratioP1;P1;durP2;ratioP2;P2;SDS_P1;SDS_P2;PMS_P1;PMS_P2;Temp;Humidity;BMP_temperature;BMP_pressure;BME280_temperature;BME280_humidity;BME280_pressure;Samples;Min_cycle;Max_cycle;Signal;HPM_P1;HPM_P2
2021/01/27 00:00:16;;;;;;;;;;;;;;;17.54;57.10;100114.34;5056671;28;1509;-74
2021/01/27 00:02:41;;;;;;;;;;;;;;;17.52;56.65;100125.19;5074647;28;1635;-74
2021/01/27 00:05:09;;;;;;;;;;;;;;;17.51;57.24;100126.19;5056789;28;1592;-74
2021/01/27 00:07:34;;;;;;;;;;;;;;;17.49;57.21;100126.31;5074275;28;1536;-62
2021/01/27 00:09:59;;;;;;;;;;;;;;;17.49;57.26;100130.81;5056847;28;1493;-74
2021/01/27 00:12:25;;;;;;;;;;;;;;;17.46;57.09;100123.06;5056421;28;1395;-74
2021/01/27 00:14:50;;;;;;;;;;;;;;;17.46;56.97;100117.72;5054617;28;1628;-74
2021/01/27 00:17:15;;;;;;;;;;;;;;;17.44;56.47;100115.19;5054214;28;1913;-63
2021/01/27 00:19:41;;;;;;;;;;;;;;;17.42;56.35;100119.81;5054263;28;1517;-73
2021/01/27 00:22:06;;;;;;;;;;;;;;;17.47;57.17;100122.94;5054401;28;1506;-63
2021/01/27 00:24:32;;;;;;;;;;;;;;;17.45;56.94;100116.06;5054371;28;1644;-73
2021/01/27 00:26:58;;;;;;;;;;;;;;;17.44;57.00;100120.53;5054481;28;1589;-73
2021/01/27 00:29:25;;;;;;;;;;;;;;;17.46;57.04;100129.25;5054225;28;1569;-62
2021/01/27 00:31:50;;;;;;;;;;;;;;;17.40;55.89;100129.81;5054404;28;1410;-71
2021/01/27 00:34:20;;;;;;;;;;;;;;;17.40;57.00;100121.81;5036692;28;1502;-62
2021/01/27 00:36:49;;;;;;;;;;;;;;;17.41;56.46;100112.81;5054363;28;1628;-73
2021/01/27 00:39:14;;;;;;;;;;;;;;;17.45;57.21;100124.06;5054111;28;1898;-62
2021/01/27 00:41:40;;;;;;;;;;;;;;;17.44;56.01;100115.19;5036605;28;1490;-62
2021/01/27 00:44:05;;;;;;;;;;;;;;;17.44;56.19;100119.69;5054400;28;1478;-62
2021/01/27 00:46:31;;;;;;;;;;;;;;;17.44;56.45;100125.03;5054251;28;1482;-66
2021/01/27 00:48:56;;;;;;;;;;;;;;;17.46;56.43;100133.75;5055972;28;1569;-62
2021/01/27 00:51:21;;;;;;;;;;;;;;;17.42;56.56;100124.34;5040356;28;1513;-73
2021/01/27 00:53:47;;;;;;;;;;;;;;;17.42;56.18;100129.69;5040572;28;1529;-62
2021/01/27 00:56:15;;;;;;;;;;;;;;;17.39;56.64;100128.16;5040473;28;1446;-62
2021/01/27 00:58:40;;;;;;;;;;;;;;;17.38;56.85;100120.25;5058223;28;1885;-73
2021/01/27 01:01:06;;;;;;;;;;;;;;;17.38;56.06;100105.06;5040352;28;1529;-73
2021/01/27 01:03:31;;;;;;;;;;;;;;;17.38;56.31;100114.91;5040182;28;1573;-73
2021/01/27 01:05:56;;;;;;;;;;;;;;;17.34;56.87;100111.66;5040217;28;1510;-74
2021/01/27 01:08:22;;;;;;;;;;;;;;;17.30;56.61;100102.25;5058106;28;1472;-73
2021/01/27 01:10:48;;;;;;;;;;;;;;;17.34;55.39;100097.47;5057503;28;1577;-62
2021/01/27 01:13:16;;;;;;;;;;;;;;;17.29;56.20;100097.91;5040126;28;1604;-72
2021/01/27 01:15:41;;;;;;;;;;;;;;;17.30;55.28;100091.56;5039704;28;1415;-73
2021/01/27 01:18:06;;;;;;;;;;;;;;;17.29;55.88;100097.91;5057692;28;1906;-62
2021/01/27 01:20:32;;;;;;;;;;;;;;;17.28;56.55;100090.88;5057704;28;1458;-62
2021/01/27 01:22:58;;;;;;;;;;;;;;;17.28;56.43;100099.72;5039750;28;1514;-62
2021/01/27 01:25:25;;;;;;;;;;;;;;;17.24;55.74;100098.31;5057408;28;1339;-74
2021/01/27 01:27:50;;;;;;;;;;;;;;;17.25;55.73;100083.13;5057434;28;1462;-62
2021/01/27 01:30:18;;;;;;;;;;;;;;;17.27;55.88;100086.50;5057694;28;1608;-73
2021/01/27 01:32:44;;;;;;;;;;;;;;;17.30;56.47;100086.22;5039786;28;1509;-62
2021/01/27 01:35:10;;;;;;;;;;;;;;;17.27;55.55;100091.88;5057493;28;1478;-73
2021/01/27 01:37:35;;;;;;;;;;;;;;;17.26;55.47;100090.16;5056932;28;1881;-62
2021/01/27 01:40:05;;;;;;;;;;;;;;;17.27;55.78;100087.34;5057238;28;1526;-73
2021/01/27 01:42:30;;;;;;;;;;;;;;;17.27;55.39;100081.19;5057156;28;1454;-63
2021/01/27 01:44:56;;;;;;;;;;;;;;;17.26;56.33;100085.66;5057092;28;1415;-62
2021/01/27 01:47:21;;;;;;;;;;;;;;;17.24;54.96;100082.28;5056818;28;1498;-62
2021/01/27 01:49:47;;;;;;;;;;;;;;;17.25;55.12;100069.78;5057050;28;1541;-62
2021/01/27 01:52:13;;;;;;;;;;;;;;;17.27;56.30;100091.88;5039397;28;1459;-73
2021/01/27 01:54:38;;;;;;;;;;;;;;;17.27;54.89;100102.56;5056856;28;1470;-73
2021/01/27 01:57:07;;;;;;;;;;;;;;;17.25;56.19;100097.34;5056580;28;1885;-62
2021/01/27 01:59:34;;;;;;;;;;;;;;;17.22;54.99;100102.13;5056056;28;1628;-73
2021/01/27 02:02:06;;;;;;;;;;;;;;;17.27;54.95;100102.56;5055268;28;1592;-62
2021/01/27 02:04:51;;;;;;;;;;;;;;;17.25;55.07;100093.84;5056759;28;1478;-62
2021/01/27 02:07:16;;;;;;;;;;;;;;;17.21;54.81;100077.22;5055864;28;1569;-72
2021/01/27 02:09:42;;;;;;;;;;;;;;;17.21;56.11;100079.91;5056579;28;1541;-62
2021/01/27 02:12:24;;;;;;;;;;;;;;;17.21;56.04;100079.91;5071867;28;1422;-74
2021/01/27 02:15:07;;;;;;;;;;;;;;;17.18;55.77;100060.63;5076619;28;1524;-73
2021/01/27 02:17:39;;;;;;;;;;;;;;;17.18;54.65;100071.31;5076244;28;1967;-73
2021/01/27 02:20:15;;;;;;;;;;;;;;;17.19;54.56;100073.00;5058406;28;1509;-62
2021/01/27 02:22:46;;;;;;;;;;;;;;;17.14;55.51;100053.88;5076561;28;1616;-62
2021/01/27 02:25:27;;;;;;;;;;;;;;;17.15;55.66;100066.25;5076481;28;1714;-73
2021/01/27 02:27:54;;;;;;;;;;;;;;;17.17;56.33;100072.28;5060909;28;1509;-62
2021/01/27 02:30:23;;;;;;;;;;;;;;;17.15;54.83;100076.94;5076404;28;1469;-62
2021/01/27 02:33:08;;;;;;;;;;;;;;;17.12;56.08;100082.56;5076305;28;1394;-62
2021/01/27 02:35:35;;;;;;;;;;;;;;;17.11;55.77;100081.72;5058312;28;1501;-73
2021/01/27 02:38:04;;;;;;;;;;;;;;;17.10;54.93;100096.91;5058148;28;1889;-74
2021/01/27 02:40:35;;;;;;;;;;;;;;;17.12;55.75;100112.78;5058384;28;1501;-74
2021/01/27 02:43:12;;;;;;;;;;;;;;;17.10;56.14;100096.91;5059447;28;1472;-73
2021/01/27 02:45:41;;;;;;;;;;;;;;;17.06;55.00;100075.94;5075722;28;1556;-62
2021/01/27 02:48:10;;;;;;;;;;;;;;;17.05;54.62;100093.81;5058102;28;1458;-74
2021/01/27 02:50:51;;;;;;;;;;;;;;;17.09;55.82;100105.06;5075839;28;1541;-62
2021/01/27 02:53:19;;;;;;;;;;;;;;;17.07;55.85;100083.00;5075704;28;1635;-73
2021/01/27 02:56:02;;;;;;;;;;;;;;;17.09;55.03;100100.56;5057938;28;1386;-62
2021/01/27 02:58:50;;;;;;;;;;;;;;;17.10;54.88;100104.06;5075921;28;1949;-64
2021/01/27 03:01:23;;;;;;;;;;;;;;;17.05;54.67;100075.13;5076604;22;2010;-56
2021/01/27 03:03:55;;;;;;;;;;;;;;;17.08;55.42;100063.31;5039189;28;1623;-55
2021/01/27 03:06:22;;;;;;;;;;;;;;;17.10;55.32;100091.56;5054317;28;1834;-56
2021/01/27 03:08:56;;;;;;;;;;;;;;;17.11;55.23;100087.06;5054347;28;1762;-55
2021/01/27 03:11:23;;;;;;;;;;;;;;;17.06;54.70;100082.13;5067701;22;3582;-74
2021/01/27 03:13:49;;;;;;;;;;;;;;;17.08;54.22;100085.50;5041036;28;1533;-73
2021/01/27 03:16:17;;;;;;;;;;;;;;;17.07;55.17;100069.63;5053956;28;1564;-73
2021/01/27 03:18:46;;;;;;;;;;;;;;;17.08;56.68;100071.31;5039799;28;1918;-62
2021/01/27 03:21:16;;;;;;;;;;;;;;;17.11;55.47;100081.72;5053341;28;1530;-73
2021/01/27 03:23:50;;;;;;;;;;;;;;;17.08;54.84;100090.84;5052568;28;1354;-62
2021/01/27 03:26:34;;;;;;;;;;;;;;;17.06;54.82;100089.31;5055683;28;796;-73
2021/01/27 03:29:12;;;;;;;;;;;;;;;17.06;56.08;100094.66;5055622;28;891;-63
2021/01/27 03:31:38;;;;;;;;;;;;;;;17.05;54.89;100090.28;5054988;28;1562;-73
2021/01/27 03:34:12;;;;;;;;;;;;;;;17.03;55.44;100108.28;5037795;28;1140;-62
2021/01/27 03:36:41;;;;;;;;;;;;;;;17.01;55.21;100124.47;5055361;28;749;-62
2021/01/27 03:39:07;;;;;;;;;;;;;;;16.82;56.13;100124.41;5037832;28;1882;-62
2021/01/27 03:41:37;;;;;;;;;;;;;;;16.69;57.43;100113.94;5054817;28;1592;-62
2021/01/27 03:44:08;;;;;;;;;;;;;;;16.61;57.88;100101.28;5054875;28;1411;-63
2021/01/27 03:46:37;;;;;;;;;;;;;;;16.54;57.76;100076.09;5054966;28;1481;-71
2021/01/27 03:49:09;;;;;;;;;;;;;;;16.55;58.21;100093.78;5037324;28;1486;-73
2021/01/27 03:51:37;;;;;;;;;;;;;;;16.48;57.79;100119.34;5054545;28;1624;-62
2021/01/27 03:54:05;;;;;;;;;;;;;;;16.48;58.41;100098.84;5054819;28;1422;-73
2021/01/27 03:56:37;;;;;;;;;;;;;;;16.46;57.54;100099.97;5054337;28;1183;-73
2021/01/27 03:59:02;;;;;;;;;;;;;;;16.43;58.22;100097.56;5049372;28;1953;-73
2021/01/27 04:01:28;;;;;;;;;;;;;;;16.44;58.83;100107.25;5033052;28;1439;-73
2021/01/27 04:03:53;;;;;;;;;;;;;;;16.43;58.11;100113.56;5034114;28;1378;-73
2021/01/27 04:06:19;;;;;;;;;;;;;;;16.40;58.26;100130.69;5033280;28;1385;-73
2021/01/27 04:08:44;;;;;;;;;;;;;;;16.38;58.67;100123.81;5034455;28;1421;-63
2021/01/27 04:11:10;;;;;;;;;;;;;;;16.41;58.98;100110.19;5034565;28;1589;-63
2021/01/27 04:13:35;;;;;;;;;;;;;;;16.46;60.59;100134.66;5033612;28;1521;-63
2021/01/27 04:16:01;;;;;;;;;;;;;;;16.54;59.85;100131.31;5034704;28;1761;-63
2021/01/27 04:18:27;;;;;;;;;;;;;;;16.58;60.42;100138.91;5033432;28;1914;-62
2021/01/27 04:20:53;;;;;;;;;;;;;;;16.49;60.39;100153.06;5031719;28;1510;-78
2021/01/27 04:23:18;;;;;;;;;;;;;;;16.48;60.07;100170.06;5033293;28;1447;-62
2021/01/27 04:25:43;;;;;;;;;;;;;;;16.46;60.49;100158.69;5032758;28;1450;-62
2021/01/27 04:28:09;;;;;;;;;;;;;;;16.46;59.60;100166.69;5016360;28;1256;-62
2021/01/27 04:30:35;;;;;;;;;;;;;;;16.40;60.78;100175.22;5016604;28;1281;-63
2021/01/27 04:33:01;;;;;;;;;;;;;;;16.40;60.78;100183.22;5034270;28;1417;-77
2021/01/27 04:35:27;;;;;;;;;;;;;;;16.36;59.53;100177.31;5032935;28;1363;-62
2021/01/27 04:37:52;;;;;;;;;;;;;;;16.38;60.93;100182.53;5033727;28;1898;-76
2021/01/27 04:40:27;;;;;;;;;;;;;;;16.35;60.22;100188.09;5034628;28;804;-62
2021/01/27 04:42:52;;;;;;;;;;;;;;;16.32;59.58;100175.88;5023094;28;1385;-62
2021/01/27 04:45:18;;;;;;;;;;;;;;;16.32;60.60;100169.72;5034206;28;1378;-69
2021/01/27 04:47:56;;;;;;;;;;;;;;;16.31;60.23;100184.84;5034676;28;845;-74
2021/01/27 04:50:21;;;;;;;;;;;;;;;16.28;60.61;100171.78;5034274;28;1439;-62
2021/01/27 04:52:54;;;;;;;;;;;;;;;16.27;59.77;100167.41;5020499;28;1592;-76
2021/01/27 04:55:39;;;;;;;;;;;;;;;16.27;60.28;100188.75;5033317;28;1573;-62
2021/01/27 04:58:17;;;;;;;;;;;;;;;16.32;61.00;100177.72;5034251;28;1949;-62
2021/01/27 05:01:01;;;;;;;;;;;;;;;16.29;61.08;100145.00;5034069;28;1581;-63
2021/01/27 05:03:44;;;;;;;;;;;;;;;16.25;60.61;100164.91;5031449;28;1287;-76
2021/01/27 05:06:13;;;;;;;;;;;;;;;16.26;61.10;100161.25;5029157;28;1310;-71
2021/01/27 05:09:05;;;;;;;;;;;;;;;16.42;59.93;100166.09;5025037;28;1534;-62
2021/01/27 05:11:30;;;;;;;;;;;;;;;16.47;60.80;100195.91;5031569;28;1443;-64
2021/01/27 05:13:57;;;;;;;;;;;;;;;16.48;61.22;100196.75;5034051;28;1538;-75
2021/01/27 05:16:24;;;;;;;;;;;;;;;16.47;60.41;100190.59;5032766;28;1451;-62
2021/01/27 05:18:51;;;;;;;;;;;;;;;16.45;61.93;100191.66;5016305;28;1967;-61
2021/01/27 05:21:29;;;;;;;;;;;;;;;16.38;63.10;100169.19;5016158;28;1251;-65
2021/01/27 06:19:45;;;;;;;;;;;;;;;18.25;58.54;100212.97;5027068;28;1870;-57
2021/01/27 06:22:10;;;;;;;;;;;;;;;18.38;58.68;100204.63;5054779;28;1536;-56
2021/01/27 06:24:38;;;;;;;;;;;;;;;18.42;58.22;100198.84;5055309;28;1629;-56
2021/01/27 06:27:17;;;;;;;;;;;;;;;18.56;57.89;100185.97;5055305;28;1786;-56
2021/01/27 06:30:01;;;;;;;;;;;;;;;18.58;58.18;100206.28;5055316;28;1791;-56
2021/01/27 06:32:41;;;;;;;;;;;;;;;18.69;56.95;100186.47;5055051;28;1666;-56
2021/01/27 06:35:12;;;;;;;;;;;;;;;18.82;55.98;100176.31;5054906;28;1758;-56
2021/01/27 06:37:56;;;;;;;;;;;;;;;19.00;55.80;100195.13;5054782;28;1914;-56
2021/01/27 06:40:29;;;;;;;;;;;;;;;19.17;55.14;100190.78;5055034;28;1638;-56
2021/01/27 06:43:17;;;;;;;;;;;;;;;19.13;55.37;100177.81;5055094;28;1600;-56
2021/01/27 06:45:57;;;;;;;;;;;;;;;19.02;55.77;100190.44;5032835;28;2150;-56
2021/01/27 06:48:41;;;;;;;;;;;;;;;18.97;55.79;100179.31;5054943;28;1638;-56
2021/01/27 06:51:18;;;;;;;;;;;;;;;18.88;56.11;100183.75;5054955;28;1714;-56
2021/01/27 06:53:46;;;;;;;;;;;;;;;18.82;56.33;100178.13;5038864;28;1572;-56
2021/01/27 06:56:32;;;;;;;;;;;;;;;18.69;56.49;100187.31;5054572;28;1588;-56
2021/01/27 06:59:07;;;;;;;;;;;;;;;18.65;57.65;100180.56;5053157;28;1894;-56
2021/01/27 07:01:32;;;;;;;;;;;;;;;18.63;58.86;100187.06;5054755;28;1749;-57
2021/01/27 07:04:04;;;;;;;;;;;;;;;18.47;58.23;100182.34;5053923;28;1636;-56
2021/01/27 07:06:35;;;;;;;;;;;;;;;18.39;58.62;100191.09;5050522;28;1749;-56
2021/01/27 07:09:03;;;;;;;;;;;;;;;18.31;59.05;100177.59;5053361;28;1700;-56
2021/01/27 07:11:35;;;;;;;;;;;;;;;18.28;58.81;100178.75;5035699;28;1658;-56
2021/01/27 07:14:16;;;;;;;;;;;;;;;18.24;59.50;100161.28;5037203;28;1381;-56
2021/01/27 07:17:00;;;;;;;;;;;;;;;18.24;58.92;100160.41;5046247;28;1592;-56
2021/01/27 07:19:48;;;;;;;;;;;;;;;18.26;58.78;100167.34;5054335;28;1910;-56
2021/01/27 07:22:13;;;;;;;;;;;;;;;18.28;58.56;100146.63;5022573;28;1852;-56
2021/01/27 07:25:01;;;;;;;;;;;;;;;18.24;59.09;100169.31;5050273;28;1409;-56
2021/01/27 07:27:30;;;;;;;;;;;;;;;18.15;59.32;100169.34;5053717;28;1495;-56
2021/01/27 07:30:11;;;;;;;;;;;;;;;18.13;58.78;100168.66;5050684;28;1495;-56
2021/01/27 07:32:56;;;;;;;;;;;;;;;18.05;58.81;100172.88;5041863;28;1751;-56
2021/01/27 07:35:29;;;;;;;;;;;;;;;18.02;58.70;100161.59;5048701;28;1663;-56
2021/01/27 07:37:58;;;;;;;;;;;;;;;17.99;58.55;100153.88;5035321;28;1914;-56
2021/01/27 07:40:29;;;;;;;;;;;;;;;17.99;58.65;100143.19;5049212;28;1659;-57
2021/01/27 07:42:58;;;;;;;;;;;;;;;18.05;58.70;100145.28;5049035;28;1673;-56
2021/01/27 07:45:34;;;;;;;;;;;;;;;18.07;58.77;100143.31;5051144;28;1598;-56
2021/01/27 07:48:09;;;;;;;;;;;;;;;18.13;58.29;100134.69;5053575;28;1651;-56
2021/01/27 07:50:35;;;;;;;;;;;;;;;18.18;57.78;100140.44;5053158;28;1712;-56
2021/01/27 07:53:17;;;;;;;;;;;;;;;18.20;58.12;100143.81;5053604;28;1618;-56
2021/01/27 07:55:58;;;;;;;;;;;;;;;18.27;57.59;100134.22;5053193;28;1803;-56
2021/01/27 07:58:23;;;;;;;;;;;;;;;18.27;58.16;100150.28;5046621;28;2446;-57
2021/01/27 08:00:48;;;;;;;;;;;;;;;18.34;57.39;100130.94;5053347;28;1735;-57
2021/01/27 08:03:29;;;;;;;;;;;;;;;18.46;57.04;100121.75;5035117;28;2072;-56
2021/01/27 08:06:20;;;;;;;;;;;;;;;18.43;57.57;100122.88;5045026;28;1750;-57
2021/01/27 08:08:49;;;;;;;;;;;;;;;18.35;57.73;100119.28;5044073;28;1784;-57
2021/01/27 08:11:16;;;;;;;;;;;;;;;18.39;58.28;100142.91;5053521;28;1785;-56
2021/01/27 08:13:42;;;;;;;;;;;;;;;18.43;57.24;100138.94;5053284;28;1721;-57
2021/01/27 08:16:07;;;;;;;;;;;;;;;18.45;57.45;100162.91;5052720;28;1707;-56
2021/01/27 08:18:33;;;;;;;;;;;;;;;18.35;58.20;100162.94;5053335;28;1894;-56
2021/01/27 08:21:17;;;;;;;;;;;;;;;18.25;58.82;100162.13;5052657;28;1710;-56
2021/01/27 08:23:46;;;;;;;;;;;;;;;18.27;58.89;100163.66;5053447;28;1487;-56
2021/01/27 08:26:12;;;;;;;;;;;;;;;18.33;58.48;100169.44;5053163;28;898;-56
2021/01/27 08:28:37;;;;;;;;;;;;;;;18.34;57.80;100160.41;5052558;28;1600;-56
2021/01/27 08:31:18;;;;;;;;;;;;;;;18.28;59.13;100146.63;5053245;28;1563;-56
2021/01/27 08:33:46;;;;;;;;;;;;;;;18.35;58.49;100162.09;5052324;28;1756;-57
2021/01/27 08:36:13;;;;;;;;;;;;;;;18.29;59.57;100163.53;5044760;28;1577;-56
2021/01/27 08:38:46;;;;;;;;;;;;;;;18.32;58.97;100146.31;5052205;28;1917;-56
2021/01/27 08:41:31;;;;;;;;;;;;;;;18.31;58.76;100158.03;5053893;28;1696;-57
2021/01/27 08:43:57;;;;;;;;;;;;;;;18.32;59.05;100162.38;5052060;28;2409;-58
2021/01/27 08:46:34;;;;;;;;;;;;;;;18.31;58.99;100166.06;5053064;28;1666;-57
2021/01/27 08:48:59;;;;;;;;;;;;;;;18.24;59.04;100166.66;5053397;28;837;-57
2021/01/27 08:51:41;;;;;;;;;;;;;;;18.26;58.57;100167.34;5051655;28;1690;-57
2021/01/27 08:54:25;;;;;;;;;;;;;;;18.24;59.14;100179.16;5052211;28;1618;-57
2021/01/27 08:57:09;;;;;;;;;;;;;;;18.26;58.69;100183.41;5048496;28;1689;-57
2021/01/27 08:59:49;;;;;;;;;;;;;;;18.33;58.92;100188.16;5052849;28;1889;-56
2021/01/27 09:02:34;;;;;;;;;;;;;;;18.44;58.64;100199.56;5053019;28;1641;-58
2021/01/27 09:05:02;;;;;;;;;;;;;;;18.29;58.80;100188.44;5051756;28;1840;-57
2021/01/27 09:07:27;;;;;;;;;;;;;;;18.28;59.04;100189.44;5049010;28;1694;-57
2021/01/27 09:09:52;;;;;;;;;;;;;;;18.24;60.04;100196.09;5052971;28;1423;-57
2021/01/27 09:12:25;;;;;;;;;;;;;;;18.22;59.34;100173.97;5057070;28;1846;-57
2021/01/27 09:14:51;;;;;;;;;;;;;;;18.28;59.28;100181.41;5056152;28;1739;-57
2021/01/27 09:17:16;;;;;;;;;;;;;;;18.26;59.39;100180.72;5056245;28;1679;-57
2021/01/27 09:19:42;;;;;;;;;;;;;;;18.29;59.45;100179.59;5056185;28;1906;-58
2021/01/27 09:22:10;;;;;;;;;;;;;;;18.43;59.11;100170.25;5055275;28;1560;-57
2021/01/27 14:03:01;;;;;;;;;;;;;;;16.22;64.40;100130.47;5111835;27;1471;-56
2021/01/27 14:05:26;;;;;;;;;;;;;;;16.25;63.64;100135.56;5103402;28;1161;-56
2021/01/27 14:07:53;;;;;;;;;;;;;;;16.25;63.88;100142.69;5102813;28;1586;-56
2021/01/27 14:10:22;;;;;;;;;;;;;;;16.25;63.53;100146.22;5100912;28;1914;-56
2021/01/27 14:12:48;;;;;;;;;;;;;;;16.24;63.12;100141.88;5104625;28;1835;-57
2021/01/27 14:15:15;;;;;;;;;;;;;;;16.23;63.21;100140.16;5097429;28;1962;-56
2021/01/27 14:17:40;;;;;;;;;;;;;;;16.22;63.11;100135.81;5095215;28;1581;-56
2021/01/27 14:20:06;;;;;;;;;;;;;;;16.23;64.35;100140.16;5106165;28;1645;-56
2021/01/27 14:22:32;;;;;;;;;;;;;;;16.23;63.01;100148.16;5134247;27;1896;-56
2021/01/27 14:24:58;;;;;;;;;;;;;;;16.22;64.02;100146.47;5100643;28;1539;-56
2021/01/27 14:27:23;;;;;;;;;;;;;;;16.19;63.60;100137.91;5103291;28;1520;-56
2021/01/27 14:29:49;;;;;;;;;;;;;;;16.18;63.73;100131.72;5103123;28;1607;-56
2021/01/27 14:32:17;;;;;;;;;;;;;;;16.18;63.20;100147.72;5102422;28;1890;-57
2021/01/27 14:34:43;;;;;;;;;;;;;;;16.14;64.20;100138.31;5100702;28;1824;-56
2021/01/27 14:37:09;;;;;;;;;;;;;;;16.14;63.10;100145.47;5102656;28;1882;-56
2021/01/27 14:39:34;;;;;;;;;;;;;;;16.14;64.28;100150.81;5100526;28;1664;-56
2021/01/27 14:42:01;;;;;;;;;;;;;;;16.09;63.63;100154.72;5103014;28;1735;-56
2021/01/27 14:44:27;;;;;;;;;;;;;;;16.09;64.12;100153.84;5101089;28;1461;-56
2021/01/27 14:46:52;;;;;;;;;;;;;;;16.09;64.34;100146.72;5101307;28;1505;-58
2021/01/27 14:49:19;;;;;;;;;;;;;;;16.10;63.27;100160.88;5104686;28;1148;-56
2021/01/27 14:51:45;;;;;;;;;;;;;;;16.05;63.66;100155.91;5098872;28;2324;-56
2021/01/27 14:54:22;;;;;;;;;;;;;;;16.06;63.70;100162.97;5115810;28;2700;-56
2021/01/27 14:56:48;;;;;;;;;;;;;;;16.06;63.30;100164.78;5083840;28;1626;-57
2021/01/27 14:59:13;;;;;;;;;;;;;;;16.04;64.09;100161.41;5084698;28;1573;-58
2021/01/27 15:01:38;;;;;;;;;;;;;;;16.01;63.52;100159.00;5078634;28;1530;-56
2021/01/27 15:04:05;;;;;;;;;;;;;;;16.06;63.53;100162.13;5071880;28;1416;-56
2021/01/27 15:06:31;;;;;;;;;;;;;;;16.05;64.23;100163.91;5070481;28;1509;-56
2021/01/27 15:08:56;;;;;;;;;;;;;;;16.01;64.21;100159.00;5070658;28;1470;-56
2021/01/27 15:11:22;;;;;;;;;;;;;;;16.05;63.48;100163.09;5071022;28;1914;-56
2021/01/27 15:13:50;;;;;;;;;;;;;;;16.04;64.26;100159.59;5071802;28;1441;-56
2021/01/27 15:16:18;;;;;;;;;;;;;;;16.00;63.68;100165.31;5071876;28;1488;-56
2021/01/27 15:18:43;;;;;;;;;;;;;;;16.01;64.26;100153.66;5070648;28;1797;-58
2021/01/27 15:21:09;;;;;;;;;;;;;;;16.00;64.13;100171.50;5069788;28;2165;-56
2021/01/27 15:23:35;;;;;;;;;;;;;;;15.99;64.32;100158.28;5061082;28;1572;-56
2021/01/27 15:26:02;;;;;;;;;;;;;;;16.02;63.54;100169.53;5070894;28;961;-56
2021/01/27 15:28:27;;;;;;;;;;;;;;;15.99;64.08;100151.13;5071589;28;1675;-56
2021/01/27 15:30:54;;;;;;;;;;;;;;;16.00;64.25;100150.16;5070433;28;1881;-55
2021/01/27 15:33:19;;;;;;;;;;;;;;;15.99;63.49;100163.63;5069723;28;1593;-56
2021/01/27 15:35:45;;;;;;;;;;;;;;;15.99;64.21;100155.59;5072521;28;1483;-56
2021/01/27 15:38:16;;;;;;;;;;;;;;;16.00;63.20;100167.97;5071223;28;1729;-55
2021/01/27 15:40:43;;;;;;;;;;;;;;;15.95;63.49;100168.34;5069517;28;1589;-56
2021/01/27 15:43:11;;;;;;;;;;;;;;;15.98;64.39;100170.78;5062912;28;1753;-56
2021/01/27 15:45:49;;;;;;;;;;;;;;;15.93;63.43;100170.31;5063218;28;1630;-56
2021/01/27 15:48:35;;;;;;;;;;;;;;;15.91;64.44;100157.09;5070661;28;1521;-56
2021/01/27 15:51:01;;;;;;;;;;;;;;;15.92;63.65;100163.28;5069223;28;1945;-56
2021/01/27 15:53:26;;;;;;;;;;;;;;;15.89;64.62;100175.03;5067757;28;1588;-56
2021/01/27 15:55:51;;;;;;;;;;;;;;;15.87;64.60;100163.66;5068991;28;1548;-56
2021/01/27 15:58:17;;;;;;;;;;;;;;;15.90;64.33;100179.41;5053379;28;1720;-56
2021/01/27 16:00:46;;;;;;;;;;;;;;;15.88;63.99;100184.03;5069821;28;1543;-56
2021/01/27 16:03:12;;;;;;;;;;;;;;;15.85;63.42;100178.94;5070665;28;1584;-56
2021/01/27 16:05:37;;;;;;;;;;;;;;;15.87;63.56;100182.34;5072161;28;1082;-56
2021/01/27 16:08:03;;;;;;;;;;;;;;;15.91;63.61;100191.75;5070181;28;1945;-56
2021/01/27 16:10:29;;;;;;;;;;;;;;;15.85;64.40;100178.94;5070056;28;1992;-56
2021/01/27 16:12:58;;;;;;;;;;;;;;;15.91;63.74;100180.25;5069021;28;1672;-56
2021/01/27 16:15:27;;;;;;;;;;;;;;;15.93;63.58;100190.81;5068139;28;1533;-57
2021/01/27 16:17:56;;;;;;;;;;;;;;;15.91;64.44;100180.25;5069520;28;1533;-56
2021/01/27 16:20:21;;;;;;;;;;;;;;;15.89;64.24;100180.38;5071183;28;1698;-56
2021/01/27 16:22:48;;;;;;;;;;;;;;;15.86;63.95;100193.97;5059389;28;1793;-56
2021/01/27 16:25:14;;;;;;;;;;;;;;;15.84;64.52;100177.28;5069276;28;1745;-56
2021/01/27 16:27:41;;;;;;;;;;;;;;;15.85;63.82;100194.94;5069169;28;1741;-56
2021/01/27 16:30:07;;;;;;;;;;;;;;;15.80;63.69;100183.84;5067312;28;1947;-56
2021/01/27 16:32:34;;;;;;;;;;;;;;;15.79;64.32;100179.47;5067304;28;1482;-56
2021/01/27 16:34:59;;;;;;;;;;;;;;;15.84;63.96;100184.44;5068275;28;1577;-56
2021/01/27 16:37:24;;;;;;;;;;;;;;;15.78;64.42;100183.13;5069039;28;1584;-58
2021/01/27 16:39:50;;;;;;;;;;;;;;;15.83;64.33;100180.91;5066495;28;1524;-56
2021/01/27 16:42:16;;;;;;;;;;;;;;;15.82;63.98;100187.22;5066850;28;1820;-56
2021/01/27 16:44:44;;;;;;;;;;;;;;;15.83;64.65;100182.72;5068052;28;1509;-56
2021/01/27 16:47:09;;;;;;;;;;;;;;;15.83;64.20;100180.91;5061934;28;1566;-56
2021/01/27 16:49:35;;;;;;;;;;;;;;;15.83;64.13;100186.22;5070785;28;1251;-57
2021/01/27 16:52:01;;;;;;;;;;;;;;;15.82;63.76;100187.22;5069230;28;1938;-57
2021/01/27 16:54:28;;;;;;;;;;;;;;;15.83;63.52;100202.22;5068018;28;1538;-56
2021/01/27 16:56:54;;;;;;;;;;;;;;;15.83;64.43;100194.22;5067828;28;1569;-56
2021/01/27 16:59:20;;;;;;;;;;;;;;;15.78;64.16;100188.44;5069169;28;1477;-56
2021/01/27 17:01:46;;;;;;;;;;;;;;;15.80;64.45;100197.16;5068249;28;1470;-56
2021/01/27 17:04:12;;;;;;;;;;;;;;;15.77;63.91;100200.06;5070490;28;944;-56
2021/01/27 17:06:39;;;;;;;;;;;;;;;15.75;64.44;100207.34;5065768;28;1756;-55
2021/01/27 17:09:06;;;;;;;;;;;;;;;15.75;64.79;100203.84;5066600;28;1646;-57
2021/01/27 17:11:31;;;;;;;;;;;;;;;15.72;64.53;100218.25;5069919;28;1969;-56
2021/01/27 17:13:56;;;;;;;;;;;;;;;15.71;63.65;100219.22;5068841;28;1458;-56
2021/01/27 17:16:22;;;;;;;;;;;;;;;15.79;64.33;100234.63;5069856;28;1614;-57
2021/01/27 17:18:50;;;;;;;;;;;;;;;15.72;64.23;100218.25;5069384;28;1506;-55
2021/01/27 17:21:16;;;;;;;;;;;;;;;15.73;64.16;100221.78;5068222;28;1563;-56
2021/01/27 17:23:42;;;;;;;;;;;;;;;15.73;64.32;100217.31;5063138;28;1557;-56
2021/01/27 17:26:07;;;;;;;;;;;;;;;15.78;64.21;100225.78;5069588;28;1826;-56
2021/01/27 17:28:34;;;;;;;;;;;;;;;15.73;64.40;100238.63;5064517;28;1592;-56
2021/01/27 17:30:59;;;;;;;;;;;;;;;15.74;63.70;100228.81;5068648;28;1891;-56
2021/01/27 17:33:25;;;;;;;;;;;;;;;15.69;64.44;100221.16;5067787;28;1748;-57
2021/01/27 17:35:51;;;;;;;;;;;;;;;15.71;64.35;100230.72;5069137;28;1599;-56
2021/01/27 17:38:17;;;;;;;;;;;;;;;15.69;64.41;100223.84;5062364;28;1567;-56
2021/01/27 17:40:42;;;;;;;;;;;;;;;15.69;63.76;100227.34;5066353;28;1940;-55
2021/01/27 17:43:07;;;;;;;;;;;;;;;15.63;63.80;100208.34;5067257;28;1727;-58
2021/01/27 17:45:34;;;;;;;;;;;;;;;15.62;64.02;100212.00;5068867;28;1874;-56
2021/01/27 17:48:00;;;;;;;;;;;;;;;15.66;64.03;100230.28;5068810;28;1816;-56
2021/01/27 17:50:27;;;;;;;;;;;;;;;15.66;63.69;100227.59;5070042;28;1893;-56
2021/01/27 17:52:53;;;;;;;;;;;;;;;15.65;64.23;100220.56;5070046;28;1424;-56
2021/01/27 17:55:21;;;;;;;;;;;;;;;15.67;64.35;100229.28;5064928;28;1414;-56
2021/01/27 17:57:47;;;;;;;;;;;;;;;15.69;63.83;100229.16;5053970;28;1768;-56
2021/01/27 18:00:16;;;;;;;;;;;;;;;15.69;64.20;100221.16;5069242;28;931;-56
2021/01/27 18:02:42;;;;;;;;;;;;;;;15.68;63.39;100212.34;5070334;28;1418;-56
2021/01/27 18:05:09;;;;;;;;;;;;;;;15.67;63.52;100212.44;5063603;28;1397;-56
2021/01/27 18:07:37;;;;;;;;;;;;;;;15.66;64.22;100216.09;5054857;28;1483;-56
2021/01/27 18:10:05;;;;;;;;;;;;;;;15.69;64.02;100207.84;5054513;28;1738;-56
2021/01/27 18:12:32;;;;;;;;;;;;;;;15.67;63.54;100201.78;5061278;28;1664;-56
2021/01/27 18:14:58;;;;;;;;;;;;;;;15.68;63.35;100208.81;5069343;28;1439;-56
2021/01/27 18:17:30;;;;;;;;;;;;;;;15.60;63.98;100196.13;5070640;28;1404;-56
2021/01/27 18:19:56;;;;;;;;;;;;;;;15.60;63.85;100196.13;5052046;28;919;-56
2021/01/27 18:22:22;;;;;;;;;;;;;;;15.60;63.79;100206.78;5061582;28;1593;-56
2021/01/27 18:24:49;;;;;;;;;;;;;;;15.61;63.74;100199.63;5069832;28;1917;-55
2021/01/27 18:27:14;;;;;;;;;;;;;;;15.61;64.03;100197.81;5070555;28;1793;-58
2021/01/27 18:29:40;;;;;;;;;;;;;;;15.61;64.08;100191.66;5066287;28;1714;-56
2021/01/27 18:32:06;;;;;;;;;;;;;;;15.63;63.50;100197.69;5065943;28;1947;-56